createdAt,value
2023-02-16T00:01:52.634Z,50.10
2023-02-16T00:04:23.173Z,47.65
2023-02-16T00:06:54.025Z,42.00
2023-02-16T00:09:22.865Z,45.85
2023-02-16T00:12:09.252Z,55.50
2023-02-16T00:14:39.195Z,46.33
2023-02-16T00:17:07.288Z,49.28
2023-02-16T00:19:37.801Z,60.53
2023-02-16T00:22:08.992Z,51.78
2023-02-16T00:24:37.785Z,48.58
2023-02-16T00:27:14.756Z,46.90
2023-02-16T00:29:45.669Z,40.67
2023-02-16T00:32:14.834Z,45.72
2023-02-16T00:34:45.971Z,52.53
2023-02-16T00:37:15.380Z,56.42
2023-02-16T00:39:45.389Z,50.97
2023-02-16T00:42:18.514Z,45.70
2023-02-16T00:44:49.434Z,50.70
2023-02-16T00:47:21.459Z,50.38
2023-02-16T00:49:51.840Z,48.08
2023-02-16T00:52:33.195Z,49.90
2023-02-16T00:55:03.586Z,45.13
2023-02-16T00:57:35.163Z,53.38
2023-02-16T01:00:08.459Z,41.25
2023-02-16T01:02:36.929Z,49.70
2023-02-16T01:05:05.752Z,49.40
2023-02-16T01:07:52.814Z,46.50
2023-02-16T01:10:38.820Z,46.33
2023-02-16T01:13:08.176Z,50.33
2023-02-16T01:15:37.578Z,50.75
2023-02-16T01:18:06.120Z,53.90
2023-02-16T01:20:36.235Z,54.45
2023-02-16T01:23:05.789Z,44.47
2023-02-16T01:25:33.856Z,55.92
2023-02-16T01:28:02.526Z,56.67
2023-02-16T01:30:31.043Z,54.38
2023-02-16T01:32:59.277Z,64.25
2023-02-16T01:35:32.530Z,50.30
2023-02-16T01:38:01.067Z,59.75
2023-02-16T01:40:41.347Z,53.00
2023-02-16T01:43:19.808Z,49.72
2023-02-16T01:45:55.561Z,50.05
2023-02-16T01:48:27.478Z,43.22
2023-02-16T01:51:00.811Z,58.25
2023-02-16T01:53:33.158Z,38.80
2023-02-16T01:56:06.281Z,44.53
2023-02-16T01:58:41.881Z,48.92
2023-02-16T02:01:40.385Z,50.97
2023-02-16T02:04:33.040Z,59.10
2023-02-16T02:07:01.306Z,56.75
2023-02-16T02:09:38.397Z,54.85
2023-02-16T02:12:15.700Z,62.25
2023-02-16T02:14:44.265Z,46.53
2023-02-16T02:17:17.729Z,55.85
2023-02-16T02:19:55.674Z,47.28
2023-02-16T02:23:16.395Z,44.85
2023-02-16T02:26:33.307Z,55.80
2023-02-16T02:29:18.490Z,53.17
2023-02-16T02:31:57.148Z,62.33
2023-02-16T02:34:40.862Z,54.25
2023-02-16T02:37:17.029Z,48.28
2023-02-16T02:39:54.240Z,46.13
2023-02-16T02:42:31.224Z,41.40
2023-02-16T02:45:06.252Z,55.88
2023-02-16T02:47:41.809Z,44.67
2023-02-16T02:51:02.825Z,52.65
2023-02-16T02:53:33.175Z,50.58
2023-02-16T02:56:21.294Z,45.10
2023-02-16T02:59:11.867Z,48.90
2023-02-16T03:01:44.447Z,51.13
2023-02-16T03:04:18.482Z,54.33
2023-02-16T03:06:51.223Z,41.75
2023-02-16T03:09:21.251Z,55.00
2023-02-16T03:12:08.633Z,48.45
2023-02-16T03:14:43.396Z,55.47
2023-02-16T03:17:31.697Z,59.70
2023-02-16T03:20:20.478Z,63.50
2023-02-16T03:23:06.315Z,48.97
2023-02-16T03:25:56.312Z,48.15
2023-02-16T03:28:44.835Z,54.72
2023-02-16T03:31:20.105Z,49.60
2023-02-16T03:33:54.668Z,44.70
2023-02-16T03:36:23.948Z,50.63
2023-02-16T03:38:53.020Z,53.38
2023-02-16T03:41:22.019Z,49.22
2023-02-16T03:43:49.946Z,42.45
2023-02-16T03:46:19.792Z,49.20
2023-02-16T03:48:47.841Z,47.35
2023-02-16T03:51:15.829Z,53.10
2023-02-16T03:53:43.958Z,56.30
2023-02-16T03:56:11.915Z,49.92
2023-02-16T03:59:04.988Z,55.28
2023-02-16T04:01:34.661Z,53.97
2023-02-16T04:04:02.849Z,57.55
2023-02-16T04:06:31.140Z,60.55
2023-02-16T04:08:59.511Z,60.60
2023-02-16T04:11:45.002Z,56.83
2023-02-16T04:14:13.310Z,61.90
2023-02-16T04:16:42.748Z,56.78
2023-02-16T04:19:11.272Z,65.07
2023-02-16T04:21:39.663Z,56.53
2023-02-16T04:24:08.019Z,59.72
2023-02-16T04:26:36.248Z,68.70
2023-02-16T04:29:04.235Z,61.58
2023-02-16T04:31:32.559Z,65.60
2023-02-16T04:34:01.898Z,68.45
2023-02-16T04:36:31.705Z,62.53
2023-02-16T04:38:59.760Z,60.20
2023-02-16T04:41:27.753Z,65.03
2023-02-16T04:43:56.506Z,63.10
2023-02-16T04:46:25.024Z,64.05
2023-02-16T04:48:53.338Z,54.58
2023-02-16T04:51:23.032Z,87.47
2023-02-16T04:53:51.097Z,75.70
2023-02-16T04:56:19.046Z,61.45
2023-02-16T04:58:47.322Z,65.22
2023-02-16T05:01:20.402Z,57.55
2023-02-16T05:03:48.984Z,58.05
2023-02-16T05:06:17.297Z,56.03
2023-02-16T05:08:47.538Z,57.97
2023-02-16T05:11:33.104Z,63.28
2023-02-16T05:14:18.926Z,76.28
2023-02-16T05:16:47.671Z,67.88
2023-02-16T05:19:16.025Z,53.35
2023-02-16T05:21:44.586Z,84.03
2023-02-16T05:24:14.194Z,69.43
2023-02-16T05:26:42.120Z,59.28
2023-02-16T05:29:10.132Z,65.35
2023-02-16T05:31:38.755Z,68.35
2023-02-16T05:34:06.974Z,83.57
2023-02-16T05:36:35.152Z,59.55
2023-02-16T05:39:03.334Z,73.65
2023-02-16T05:41:32.961Z,65.70
2023-02-16T05:44:02.457Z,55.13
2023-02-16T05:46:33.699Z,75.07
2023-02-16T05:49:03.356Z,83.53
2023-02-16T05:51:31.485Z,63.33
2023-02-16T05:53:59.951Z,84.97
2023-02-16T05:56:30.062Z,68.75
2023-02-16T05:59:00.731Z,76.10
2023-02-16T06:01:29.768Z,71.07
2023-02-16T06:03:58.365Z,63.28
2023-02-16T06:06:26.433Z,67.85
2023-02-16T06:08:54.771Z,58.28
2023-02-16T06:11:37.925Z,68.00
2023-02-16T06:14:10.096Z,58.30
2023-02-16T06:16:39.941Z,72.00
2023-02-16T06:19:08.989Z,64.47
2023-02-16T06:21:37.969Z,61.28
2023-02-16T06:24:06.399Z,59.40
2023-02-16T06:26:35.030Z,64.30
2023-02-16T06:29:03.143Z,64.55
2023-02-16T06:31:35.836Z,62.05
2023-02-16T06:34:05.283Z,79.38
2023-02-16T06:36:34.110Z,55.78
2023-02-16T06:39:02.389Z,64.05
2023-02-16T06:41:35.764Z,61.08
2023-02-16T06:44:06.618Z,65.72
2023-02-16T06:46:36.623Z,72.35
2023-02-16T06:49:19.190Z,67.20
2023-02-16T06:52:06.014Z,72.07
2023-02-16T06:54:34.549Z,74.05
2023-02-16T06:57:02.600Z,82.28
2023-02-16T06:59:30.865Z,67.20
2023-02-16T07:02:00.484Z,67.45
2023-02-16T07:04:28.622Z,66.20
2023-02-16T07:07:15.835Z,70.50
2023-02-16T07:09:44.446Z,70.13
2023-02-16T07:12:13.554Z,67.65
2023-02-16T07:14:43.190Z,69.88
2023-02-16T07:17:14.606Z,65.22
2023-02-16T07:19:43.025Z,67.25
2023-02-16T07:22:11.334Z,58.22
2023-02-16T07:24:39.378Z,85.40
2023-02-16T07:27:08.710Z,69.15
2023-02-16T07:29:37.211Z,77.82
2023-02-16T07:32:05.547Z,64.75
2023-02-16T07:34:35.575Z,76.70
2023-02-16T07:37:03.752Z,92.90
2023-02-16T07:39:32.090Z,84.95
2023-02-16T07:42:00.186Z,65.20
2023-02-16T07:44:28.283Z,78.93
2023-02-16T07:46:56.482Z,77.38
2023-02-16T07:49:24.650Z,71.60
2023-02-16T07:51:54.229Z,61.75
2023-02-16T07:54:22.190Z,69.25
2023-02-16T07:56:50.393Z,53.85
2023-02-16T07:59:18.552Z,68.30
2023-02-16T08:01:47.015Z,55.90
2023-02-16T08:04:25.402Z,57.63
2023-02-16T08:06:55.124Z,57.08
2023-02-16T08:09:23.492Z,50.22
2023-02-16T08:11:51.629Z,59.58
2023-02-16T08:14:19.824Z,46.28
2023-02-16T08:16:50.369Z,48.13
2023-02-16T08:19:20.704Z,44.90
2023-02-16T08:21:49.523Z,53.33
2023-02-16T08:24:19.036Z,47.63
2023-02-16T08:26:49.959Z,50.95
2023-02-16T08:29:20.008Z,50.58
2023-02-16T08:31:49.176Z,43.00
2023-02-16T08:34:20.300Z,56.65
2023-02-16T08:36:53.121Z,56.95
2023-02-16T08:39:24.324Z,50.78
2023-02-16T08:41:53.275Z,47.70
2023-02-16T08:44:23.798Z,56.92
2023-02-16T08:46:54.180Z,46.53
2023-02-16T08:49:24.109Z,46.03
2023-02-16T08:51:54.811Z,49.35
2023-02-16T08:54:27.200Z,48.00
2023-02-16T08:56:55.882Z,49.80
2023-02-16T08:59:28.302Z,54.78
2023-02-16T09:01:57.195Z,52.67
2023-02-16T09:04:25.698Z,54.00
2023-02-16T09:06:54.127Z,48.28
2023-02-16T09:09:22.146Z,48.20
2023-02-16T09:11:51.556Z,45.03
2023-02-16T09:14:21.614Z,39.58
2023-02-16T09:16:50.772Z,45.88
2023-02-16T09:19:21.465Z,45.55
2023-02-16T09:21:52.151Z,47.28
2023-02-16T09:24:20.273Z,38.25
2023-02-16T09:26:48.231Z,45.13
2023-02-16T09:29:18.436Z,45.25
2023-02-16T09:31:46.866Z,44.17
2023-02-16T09:34:17.822Z,43.88
2023-02-16T09:36:47.385Z,39.97
2023-02-16T09:39:16.559Z,40.60
2023-02-16T09:42:01.598Z,34.60
2023-02-16T09:44:40.233Z,35.20
2023-02-16T09:47:19.432Z,41.90
2023-02-16T09:49:48.985Z,40.13
2023-02-16T09:52:26.247Z,39.15
2023-02-16T09:54:57.672Z,37.70
2023-02-16T09:57:39.219Z,43.42
2023-02-16T10:00:18.684Z,41.55
2023-02-16T10:02:54.218Z,40.45
2023-02-16T10:05:28.105Z,32.83
2023-02-16T10:08:02.022Z,39.20
2023-02-16T10:10:42.333Z,35.53
2023-02-16T10:13:20.373Z,36.28
2023-02-16T10:15:53.597Z,36.25
2023-02-16T10:18:29.468Z,36.17
2023-02-16T10:21:25.481Z,41.30
2023-02-16T10:23:59.979Z,37.20
2023-02-16T10:26:33.620Z,39.50
2023-02-16T10:29:07.530Z,37.40
2023-02-16T10:31:42.863Z,35.83
2023-02-16T10:34:23.028Z,39.20
2023-02-16T10:37:14.771Z,36.42
2023-02-16T10:39:49.330Z,33.92
2023-02-16T10:42:26.251Z,40.60
2023-02-16T10:45:00.928Z,31.73
2023-02-16T10:47:36.844Z,37.55
2023-02-16T10:50:07.172Z,34.63
2023-02-16T10:52:40.703Z,38.33
2023-02-16T10:55:09.209Z,35.70
2023-02-16T10:57:37.303Z,43.95
2023-02-16T11:00:11.610Z,48.10
2023-02-16T11:02:43.626Z,39.40
2023-02-16T11:05:38.239Z,33.97
2023-02-16T11:08:11.303Z,39.60
2023-02-16T11:10:48.352Z,32.95
2023-02-16T11:13:26.902Z,39.67
2023-02-16T11:15:57.415Z,39.05
2023-02-16T11:18:34.682Z,39.33
2023-02-16T11:21:04.213Z,45.10
2023-02-16T11:23:33.899Z,36.70
2023-02-16T11:26:05.806Z,40.35
2023-02-16T11:28:37.129Z,37.80
2023-02-16T11:31:19.356Z,41.42
2023-02-16T11:34:01.114Z,43.92
2023-02-16T11:36:34.326Z,42.03
2023-02-16T11:39:05.874Z,46.92
2023-02-16T11:41:34.933Z,43.78
2023-02-16T11:44:04.758Z,41.28
2023-02-16T11:46:40.810Z,41.38
2023-02-16T11:49:34.083Z,41.72
2023-02-16T11:52:18.451Z,43.25
2023-02-16T11:54:50.467Z,39.05
2023-02-16T11:57:25.350Z,41.05
2023-02-16T11:59:53.804Z,42.03
2023-02-16T12:02:48.321Z,47.05
2023-02-16T12:05:27.120Z,47.30
2023-02-16T12:08:19.511Z,41.50
2023-02-16T12:11:03.477Z,44.50
2023-02-16T12:13:41.354Z,38.45
2023-02-16T12:16:23.809Z,41.03
2023-02-16T12:19:04.952Z,40.40
2023-02-16T12:21:39.092Z,43.40
2023-02-16T12:24:23.744Z,42.72
2023-02-16T12:26:54.990Z,41.25
2023-02-16T12:29:39.365Z,44.30
2023-02-16T12:32:22.652Z,42.50
2023-02-16T12:35:04.210Z,44.60
2023-02-16T12:37:41.378Z,43.83
2023-02-16T12:40:21.067Z,46.90
2023-02-16T12:43:02.901Z,45.42
2023-02-16T12:45:36.631Z,41.13
2023-02-16T12:48:19.761Z,45.33
2023-02-16T12:50:51.210Z,38.47
2023-02-16T12:53:27.679Z,44.63
2023-02-16T12:56:00.350Z,39.50
2023-02-16T12:58:33.119Z,39.67
2023-02-16T13:01:07.531Z,45.47
2023-02-16T13:03:40.361Z,42.60
2023-02-16T13:06:15.724Z,45.38
2023-02-16T13:08:51.932Z,45.78
2023-02-16T13:11:25.738Z,45.53
2023-02-16T13:13:59.724Z,48.10
2023-02-16T13:16:38.491Z,42.33
2023-02-16T13:19:06.788Z,42.95
2023-02-16T13:21:54.257Z,44.58
2023-02-16T13:24:36.395Z,48.40
2023-02-16T13:27:21.929Z,44.65
2023-02-16T13:30:06.020Z,44.83
2023-02-16T13:32:50.381Z,48.47
2023-02-16T13:35:38.034Z,41.70
2023-02-16T13:38:28.026Z,46.00
2023-02-16T13:41:23.102Z,51.00
2023-02-16T13:43:56.475Z,43.97
2023-02-16T13:46:30.811Z,44.00
2023-02-16T13:48:59.861Z,42.00
2023-02-16T13:51:31.313Z,39.22
2023-02-16T13:54:01.574Z,43.58
2023-02-16T13:56:37.100Z,42.65
2023-02-16T13:59:57.089Z,43.70
2023-02-16T14:02:54.953Z,41.63
2023-02-16T14:05:28.013Z,44.97
2023-02-16T14:08:27.644Z,44.42
2023-02-16T14:11:04.973Z,48.42
2023-02-16T14:13:45.472Z,41.75
2023-02-16T14:16:29.083Z,41.38
2023-02-16T14:18:59.532Z,56.67
2023-02-16T14:21:38.233Z,48.35
2023-02-16T14:24:11.133Z,44.35
2023-02-16T14:27:09.418Z,47.78
2023-02-16T14:29:43.380Z,46.33
2023-02-16T14:32:25.433Z,42.22
2023-02-16T14:34:58.215Z,44.30
2023-02-16T14:37:34.989Z,49.67
2023-02-16T14:40:22.965Z,49.65
2023-02-16T14:42:55.426Z,42.47
2023-02-16T14:46:05.778Z,43.72
2023-02-16T14:48:58.354Z,51.35
2023-02-16T14:51:44.659Z,44.88
2023-02-16T14:55:09.179Z,43.10
2023-02-16T14:57:43.714Z,48.75
2023-02-16T15:00:19.830Z,39.60
2023-02-16T15:02:59.558Z,41.08
2023-02-16T15:05:30.839Z,43.00
2023-02-16T15:08:09.230Z,45.45
2023-02-16T15:10:40.240Z,38.00
2023-02-16T15:13:09.923Z,43.50
2023-02-16T15:15:45.177Z,42.67
2023-02-16T15:18:18.184Z,43.63
2023-02-16T15:20:49.365Z,45.53
2023-02-16T15:23:20.734Z,50.13
2023-02-16T15:25:58.785Z,40.60
2023-02-16T15:28:29.473Z,44.38
2023-02-16T15:31:00.055Z,43.10
2023-02-16T15:33:37.238Z,38.28
2023-02-16T15:36:09.038Z,43.35
2023-02-16T15:38:39.965Z,42.83
2023-02-16T15:41:10.655Z,42.40
2023-02-16T15:43:44.851Z,48.03
2023-02-16T15:46:24.358Z,39.20
2023-02-16T15:48:54.288Z,43.20
2023-02-16T15:51:27.345Z,39.97
2023-02-16T15:53:58.144Z,39.50
2023-02-16T15:56:39.588Z,46.33
2023-02-16T15:59:23.743Z,42.63
2023-02-16T16:01:59.220Z,50.75
2023-02-16T16:04:30.126Z,47.47
2023-02-16T16:07:00.718Z,48.47
2023-02-16T16:09:33.003Z,47.22
2023-02-16T16:12:04.181Z,48.80
2023-02-16T16:14:36.798Z,51.42
2023-02-16T16:17:05.445Z,51.72
2023-02-16T16:19:36.615Z,45.03
2023-02-16T16:22:15.463Z,45.47
2023-02-16T16:24:47.871Z,45.30
2023-02-16T16:27:15.898Z,48.10
2023-02-16T16:29:45.703Z,51.92
2023-02-16T16:32:21.244Z,47.20
2023-02-16T16:34:51.019Z,50.95
2023-02-16T16:37:28.403Z,60.90
2023-02-16T16:40:04.488Z,48.05
2023-02-16T16:42:33.624Z,51.38
2023-02-16T16:45:07.315Z,50.63
2023-02-16T16:47:38.962Z,52.58
2023-02-16T16:50:30.828Z,56.70
2023-02-16T16:52:59.487Z,47.72
2023-02-16T16:55:33.953Z,48.30
2023-02-16T16:58:05.185Z,46.75
2023-02-16T17:00:36.146Z,52.70
2023-02-16T17:03:05.259Z,48.10
2023-02-16T17:05:35.934Z,53.05
2023-02-16T17:08:04.352Z,54.53
2023-02-16T17:10:32.666Z,54.53
2023-02-16T17:13:01.151Z,56.25
2023-02-16T17:15:41.678Z,49.35
2023-02-16T17:18:14.610Z,56.80
2023-02-16T17:20:44.240Z,58.83
2023-02-16T17:23:13.145Z,55.42
2023-02-16T17:25:41.590Z,50.17
2023-02-16T17:28:11.200Z,48.38
2023-02-16T17:30:39.904Z,55.88
2023-02-16T17:33:08.264Z,52.40
2023-02-16T17:35:38.841Z,50.10
2023-02-16T17:38:10.188Z,51.35
2023-02-16T17:40:39.455Z,61.70
2023-02-16T17:43:12.628Z,61.60
2023-02-16T17:45:40.866Z,48.20
2023-02-16T17:48:12.321Z,48.33
2023-02-16T17:50:40.412Z,57.65
2023-02-16T17:53:13.715Z,54.85
2023-02-16T17:55:41.937Z,47.08
2023-02-16T17:58:11.943Z,57.53
2023-02-16T18:00:41.131Z,53.13
2023-02-16T18:03:09.861Z,56.90
2023-02-16T18:05:38.211Z,52.28
2023-02-16T18:08:06.934Z,60.33
2023-02-16T18:10:39.808Z,51.90
2023-02-16T18:13:09.729Z,65.15
2023-02-16T18:15:37.743Z,61.63
2023-02-16T18:18:06.122Z,55.53
2023-02-16T18:20:34.434Z,46.25
2023-02-16T18:23:02.932Z,58.83
2023-02-16T18:25:31.010Z,53.97
2023-02-16T18:28:00.522Z,62.47
2023-02-16T18:30:29.168Z,54.75
2023-02-16T18:32:57.626Z,62.30
2023-02-16T18:35:25.769Z,60.17
2023-02-16T18:37:53.738Z,63.63
2023-02-16T18:40:22.714Z,59.67
2023-02-16T18:42:51.191Z,60.00
2023-02-16T18:45:20.551Z,54.70
2023-02-16T18:47:56.674Z,55.70
2023-02-16T18:50:25.070Z,52.40
2023-02-16T18:52:53.311Z,61.10
2023-02-16T18:55:21.589Z,59.80
2023-02-16T18:57:49.997Z,58.78
2023-02-16T19:00:20.256Z,56.58
2023-02-16T19:02:50.577Z,49.78
2023-02-16T19:05:18.641Z,56.55
2023-02-16T19:07:47.149Z,59.42
2023-02-16T19:10:15.834Z,48.92
2023-02-16T19:12:44.094Z,63.53
2023-02-16T19:15:12.544Z,70.85
2023-02-16T19:17:40.502Z,48.67
2023-02-16T19:20:14.475Z,58.58
2023-02-16T19:22:42.897Z,67.32
2023-02-16T19:25:11.195Z,58.45
2023-02-16T19:27:39.209Z,63.80
2023-02-16T19:30:08.823Z,55.08
2023-02-16T19:32:38.556Z,60.15
2023-02-16T19:35:07.461Z,51.45
2023-02-16T19:37:37.041Z,57.17
2023-02-16T19:40:06.831Z,52.88
2023-02-16T19:42:35.309Z,54.75
2023-02-16T19:45:03.617Z,55.28
2023-02-16T19:47:32.075Z,52.63
2023-02-16T19:50:00.173Z,71.97
2023-02-16T19:52:28.281Z,57.42
2023-02-16T19:54:57.879Z,65.38
2023-02-16T19:57:25.927Z,60.58
2023-02-16T19:59:54.665Z,55.80
2023-02-16T20:02:22.838Z,56.53
2023-02-16T20:04:51.138Z,61.15
2023-02-16T20:07:19.273Z,57.50
2023-02-16T20:09:47.374Z,70.45
2023-02-16T20:12:16.817Z,59.60
2023-02-16T20:14:44.909Z,64.80
2023-02-16T20:17:13.519Z,59.13
2023-02-16T20:19:41.546Z,72.50
2023-02-16T20:22:09.617Z,68.85
2023-02-16T20:24:38.152Z,69.35
2023-02-16T20:27:06.513Z,54.00
2023-02-16T20:29:35.922Z,71.22
2023-02-16T20:32:05.781Z,66.97
2023-02-16T20:34:34.103Z,66.90
2023-02-16T20:37:02.789Z,61.78
2023-02-16T20:39:30.916Z,63.05
2023-02-16T20:41:59.412Z,70.85
2023-02-16T20:44:27.758Z,57.78
2023-02-16T20:46:59.734Z,63.25
2023-02-16T20:49:28.158Z,60.88
2023-02-16T20:51:56.467Z,64.95
2023-02-16T20:54:24.378Z,62.70
2023-02-16T20:56:52.619Z,69.97
2023-02-16T20:59:21.056Z,60.80
2023-02-16T21:01:52.326Z,64.50
2023-02-16T21:04:22.274Z,56.03
2023-02-16T21:06:50.815Z,59.65
2023-02-16T21:09:19.450Z,59.42
2023-02-16T21:11:47.745Z,72.25
2023-02-16T21:14:16.244Z,56.08
2023-02-16T21:16:44.252Z,70.30
2023-02-16T21:19:22.657Z,69.65
2023-02-16T21:21:52.840Z,61.38
2023-02-16T21:24:21.144Z,61.88
2023-02-16T21:26:49.351Z,72.47
2023-02-16T21:29:17.520Z,48.97
2023-02-16T21:31:45.840Z,67.88
2023-02-16T21:34:14.072Z,59.45
2023-02-16T21:36:42.253Z,61.22
2023-02-16T21:39:11.603Z,53.70
2023-02-16T21:41:38.643Z,55.28
2023-02-16T21:44:08.678Z,55.60
2023-02-16T21:46:39.220Z,66.50
2023-02-16T21:49:08.445Z,55.92
2023-02-16T21:51:40.870Z,53.33
2023-02-16T21:54:10.007Z,47.08
2023-02-16T21:56:40.791Z,44.97
2023-02-16T21:59:12.613Z,53.10
2023-02-16T22:01:42.753Z,57.30
2023-02-16T22:04:12.792Z,54.65
2023-02-16T22:06:42.952Z,48.88
2023-02-16T22:09:14.238Z,54.22
2023-02-16T22:11:43.591Z,52.40
2023-02-16T22:14:11.723Z,48.95
2023-02-16T22:16:40.698Z,47.10
2023-02-16T22:19:11.809Z,49.63
2023-02-16T22:21:42.328Z,50.60
2023-02-16T22:24:13.392Z,49.63
2023-02-16T22:26:41.694Z,53.95
2023-02-16T22:29:11.781Z,56.80
2023-02-16T22:31:44.177Z,52.85
2023-02-16T22:34:15.021Z,49.75
2023-02-16T22:36:43.536Z,62.97
2023-02-16T22:39:14.092Z,51.13
2023-02-16T22:41:42.283Z,54.75
2023-02-16T22:44:12.535Z,56.70
2023-02-16T22:46:40.934Z,50.38
2023-02-16T22:49:11.178Z,52.63
2023-02-16T22:51:39.392Z,61.53
2023-02-16T22:54:08.237Z,49.25
2023-02-16T22:56:36.322Z,54.63
2023-02-16T22:59:04.630Z,55.35
2023-02-16T23:01:34.839Z,47.10
2023-02-16T23:04:03.344Z,50.38
2023-02-16T23:06:33.352Z,56.67
2023-02-16T23:09:03.401Z,53.55
2023-02-16T23:11:31.867Z,51.70
2023-02-16T23:13:59.828Z,53.75
2023-02-16T23:16:28.850Z,48.80
2023-02-16T23:19:00.337Z,47.95
2023-02-16T23:21:29.911Z,56.00
2023-02-16T23:23:58.973Z,52.22
2023-02-16T23:26:29.452Z,50.63
2023-02-16T23:29:00.244Z,42.55
2023-02-16T23:31:31.687Z,55.55
2023-02-16T23:34:02.642Z,52.85
2023-02-16T23:36:31.031Z,49.15
2023-02-16T23:39:01.242Z,47.17
2023-02-16T23:41:29.912Z,48.78
2023-02-16T23:43:59.979Z,42.00
2023-02-16T23:46:29.375Z,42.58
2023-02-16T23:48:57.550Z,50.05
2023-02-16T23:51:27.302Z,59.38
2023-02-16T23:53:55.791Z,54.40
2023-02-16T23:56:25.276Z,45.55
2023-02-16T23:58:53.916Z,39.05
